Time;durP1;ratioP1;P1;durP2;ratioP2;P2;SDS_P1;SDS_P2;PMS_P1;PMS_P2;Temp;Humidity;BMP_temperature;BMP_pressure;BME280_temperature;BME280_humidity;BME280_pressure;Samples;Min_cycle;Max_cycle;Signal;HPM_P1;HPM_P2
2021/05/20 00:00:30;;;;;;;3.70;1.73;;;14.40;99.90;;;;;;5096502;28;20858;-81
2021/05/20 00:02:57;;;;;;;4.65;1.70;;;14.40;99.90;;;;;;5091601;28;20422;-82
2021/05/20 00:05:24;;;;;;;4.05;2.10;;;14.50;99.90;;;;;;5097601;28;20957;-81
2021/05/20 00:07:51;;;;;;;7.22;2.17;;;14.50;99.90;;;;;;5089034;28;20395;-81
2021/05/20 00:10:18;;;;;;;4.55;1.88;;;14.50;99.90;;;;;;5098126;28;20443;-81
2021/05/20 00:12:45;;;;;;;4.43;1.80;;;14.60;99.90;;;;;;5106772;28;20447;-81
2021/05/20 00:15:14;;;;;;;4.10;1.50;;;14.80;99.90;;;;;;5094850;28;20423;-82
2021/05/20 00:17:41;;;;;;;6.28;1.70;;;15.00;99.90;;;;;;5098219;28;20403;-82
2021/05/20 00:20:09;;;;;;;3.10;1.70;;;15.10;99.90;;;;;;5106678;28;20405;-81
2021/05/20 00:22:36;;;;;;;3.38;1.42;;;15.40;99.90;;;;;;5107411;28;20379;-81
2021/05/20 00:25:04;;;;;;;4.30;1.90;;;15.80;99.90;;;;;;5105250;28;20398;-81
2021/05/20 00:27:30;;;;;;;3.10;1.40;;;15.90;99.90;;;;;;5105992;28;20392;-81
2021/05/20 00:29:58;;;;;;;4.25;1.20;;;16.00;99.90;;;;;;5107371;28;20389;-81
2021/05/20 00:32:25;;;;;;;2.88;1.10;;;15.90;99.90;;;;;;5106511;28;20391;-81
2021/05/20 00:34:52;;;;;;;3.47;1.05;;;15.80;99.90;;;;;;5107587;28;20387;-81
2021/05/20 00:37:19;;;;;;;5.47;1.02;;;15.70;99.90;;;;;;5104107;28;20501;-81
2021/05/20 00:39:46;;;;;;;4.68;1.00;;;15.60;99.90;;;;;;5108531;28;20402;-81
2021/05/20 00:42:13;;;;;;;2.53;0.93;;;15.70;99.90;;;;;;5090728;28;20924;-81
2021/05/20 00:44:50;;;;;;;2.65;1.08;;;15.60;99.90;;;;;;5105768;28;20386;-82
2021/05/20 00:47:21;;;;;;;1.80;1.30;;;15.60;99.90;;;;;;5105738;28;20418;-81
2021/05/20 00:49:49;;;;;;;2.50;1.10;;;15.60;99.90;;;;;;5107886;28;20370;-83
2021/05/20 00:52:16;;;;;;;2.03;1.20;;;15.60;99.90;;;;;;5107181;28;20774;-82
2021/05/20 00:54:43;;;;;;;1.85;1.10;;;15.70;99.90;;;;;;5099180;28;20477;-81
2021/05/20 00:57:12;;;;;;;5.47;1.35;;;15.80;99.90;;;;;;5106641;28;20410;-81
2021/05/20 00:59:40;;;;;;;3.25;1.23;;;15.80;99.60;;;;;;5107248;28;20407;-81
2021/05/20 01:02:09;;;;;;;3.55;1.52;;;15.70;99.60;;;;;;5107847;28;20382;-82
2021/05/20 01:04:36;;;;;;;4.05;1.60;;;15.70;99.80;;;;;;5098653;28;20396;-82
2021/05/20 01:07:03;;;;;;;4.45;1.55;;;15.70;99.70;;;;;;5089632;28;20384;-81
2021/05/20 01:09:32;;;;;;;4.30;1.47;;;15.80;99.30;;;;;;5104456;28;20461;-82
2021/05/20 01:12:00;;;;;;;2.83;1.40;;;15.80;98.20;;;;;;5106613;27;20421;-82
2021/05/20 01:14:27;;;;;;;4.45;1.52;;;15.80;99.20;;;;;;5104327;27;20398;-81
2021/05/20 01:16:54;;;;;;;3.40;1.80;;;15.90;98.60;;;;;;5104964;27;20397;-81
2021/05/20 01:19:21;;;;;;;4.32;1.55;;;15.90;99.00;;;;;;5115748;27;20495;-82
2021/05/20 01:21:48;;;;;;;5.10;1.50;;;16.00;98.30;;;;;;5109511;28;20378;-83
2021/05/20 01:24:15;;;;;;;4.25;1.63;;;16.00;97.80;;;;;;5116336;27;20442;-82
2021/05/20 01:26:42;;;;;;;4.50;1.48;;;16.10;98.20;;;;;;5111362;28;20379;-82
2021/05/20 01:29:09;;;;;;;2.30;1.03;;;16.10;97.60;;;;;;5111033;28;20439;-81
2021/05/20 01:31:36;;;;;;;3.10;1.10;;;16.20;95.80;;;;;;5099866;28;20414;-82
2021/05/20 01:34:03;;;;;;;2.50;0.90;;;16.20;95.10;;;;;;5106839;28;20390;-83
2021/05/20 01:36:31;;;;;;;1.92;0.90;;;16.30;95.50;;;;;;5105199;28;20955;-83
2021/05/20 01:39:04;;;;;;;1.80;0.87;;;16.50;94.40;;;;;;5111206;27;20406;-81
2021/05/20 01:41:34;;;;;;;2.55;0.90;;;16.50;94.40;;;;;;5110016;27;20485;-82
2021/05/20 01:44:01;;;;;;;1.33;0.82;;;16.50;93.10;;;;;;5103351;28;20880;-82
2021/05/20 01:46:28;;;;;;;2.65;0.98;;;16.60;94.40;;;;;;5097832;28;20745;-82
2021/05/20 01:48:55;;;;;;;3.63;1.13;;;16.70;93.70;;;;;;5101770;28;20403;-81
2021/05/20 01:51:23;;;;;;;3.10;0.90;;;16.80;93.90;;;;;;5105260;28;20394;-81
2021/05/20 01:53:56;;;;;;;4.20;1.10;;;17.00;94.10;;;;;;5108002;28;20787;-81
2021/05/20 01:56:28;;;;;;;1.42;0.95;;;17.10;94.00;;;;;;5110055;28;20406;-80
2021/05/20 01:58:55;;;;;;;1.63;0.88;;;17.30;94.50;;;;;;5103383;28;21285;-79
2021/05/20 02:01:22;;;;;;;3.42;1.08;;;17.50;94.40;;;;;;5102374;28;20746;-79
2021/05/20 02:03:49;;;;;;;2.10;0.90;;;17.80;92.00;;;;;;5102415;28;20432;-79
2021/05/20 02:06:16;;;;;;;4.38;0.98;;;17.80;91.80;;;;;;5102985;28;20375;-79
2021/05/20 02:08:43;;;;;;;4.00;1.00;;;17.80;90.90;;;;;;5109362;28;20389;-80
2021/05/20 02:11:10;;;;;;;2.58;0.90;;;17.90;91.40;;;;;;5107093;28;20429;-78
2021/05/20 02:13:37;;;;;;;5.25;0.80;;;18.00;93.00;;;;;;5106761;28;20441;-80
2021/05/20 02:16:05;;;;;;;1.53;0.80;;;18.10;92.30;;;;;;5110839;28;20471;-78
2021/05/20 02:18:34;;;;;;;1.80;0.77;;;18.10;91.70;;;;;;5100634;28;20399;-80
2021/05/20 02:21:01;;;;;;;2.38;0.70;;;18.20;90.30;;;;;;5108462;28;20408;-79
2021/05/20 02:23:29;;;;;;;2.33;0.77;;;18.20;90.00;;;;;;5107597;28;20383;-79
2021/05/20 02:25:56;;;;;;;6.78;0.93;;;18.10;88.60;;;;;;5109621;28;20447;-80
2021/05/20 02:28:23;;;;;;;2.75;0.70;;;18.10;90.60;;;;;;5111199;28;20375;-80
2021/05/20 02:30:50;;;;;;;3.17;0.82;;;18.10;89.10;;;;;;5103990;28;20400;-80
2021/05/20 02:33:17;;;;;;;1.15;0.77;;;18.10;87.40;;;;;;5108208;27;20382;-81
2021/05/20 02:35:44;;;;;;;2.03;0.90;;;18.00;90.10;;;;;;5100096;28;20565;-81
2021/05/20 02:38:11;;;;;;;2.87;1.00;;;17.90;87.20;;;;;;5106187;28;20397;-81
2021/05/20 02:40:38;;;;;;;5.50;1.00;;;17.80;90.10;;;;;;5108576;28;20390;-81
2021/05/20 02:43:05;;;;;;;2.65;1.10;;;17.90;91.10;;;;;;5108824;28;20457;-80
2021/05/20 02:45:33;;;;;;;2.10;1.25;;;17.90;90.80;;;;;;5109474;28;20481;-80
2021/05/20 02:48:00;;;;;;;2.83;0.98;;;17.90;91.30;;;;;;5103506;27;20875;-81
2021/05/20 02:50:27;;;;;;;2.88;0.93;;;17.90;91.50;;;;;;5104834;27;20416;-82
2021/05/20 02:52:54;;;;;;;3.67;1.02;;;17.90;91.50;;;;;;5104763;27;20439;-82
2021/05/20 02:55:25;;;;;;;4.78;1.20;;;18.00;92.50;;;;;;5089687;27;20767;-81
2021/05/20 02:57:55;;;;;;;2.58;1.00;;;18.00;91.80;;;;;;5101318;28;20383;-82
2021/05/20 03:00:26;;;;;;;2.95;0.90;;;18.00;91.80;;;;;;5106455;28;21121;-82
2021/05/20 03:02:53;;;;;;;5.32;1.17;;;18.00;92.40;;;;;;5087516;28;20401;-81
2021/05/20 03:05:20;;;;;;;5.00;1.15;;;18.10;91.90;;;;;;5104684;28;20386;-81
2021/05/20 03:07:47;;;;;;;3.83;0.90;;;18.20;91.20;;;;;;5111124;27;20904;-81
2021/05/20 03:10:15;;;;;;;2.65;1.08;;;18.20;91.50;;;;;;5104797;27;20387;-81
2021/05/20 03:12:42;;;;;;;4.82;1.30;;;18.20;91.60;;;;;;5109245;27;20393;-82
2021/05/20 03:15:09;;;;;;;3.45;1.10;;;18.20;91.60;;;;;;5089913;28;20886;-81
2021/05/20 03:17:36;;;;;;;2.85;1.17;;;18.20;91.00;;;;;;5123994;27;20418;-82
2021/05/20 03:20:05;;;;;;;3.58;1.17;;;18.20;91.80;;;;;;5101985;28;20437;-82
2021/05/20 03:22:32;;;;;;;4.43;1.45;;;18.20;91.90;;;;;;5090201;28;20394;-82
2021/05/20 03:25:00;;;;;;;5.03;1.25;;;18.20;91.50;;;;;;5109659;28;20382;-82
2021/05/20 03:27:30;;;;;;;4.82;1.05;;;18.10;91.20;;;;;;5108328;28;20390;-81
2021/05/20 03:29:57;;;;;;;2.60;1.25;;;18.00;92.00;;;;;;5102151;28;20388;-82
2021/05/20 03:32:24;;;;;;;5.90;1.40;;;17.90;92.80;;;;;;5105159;27;20457;-82
2021/05/20 03:34:51;;;;;;;5.85;1.63;;;17.90;92.60;;;;;;5107121;28;20410;-83
2021/05/20 03:37:18;;;;;;;5.40;1.60;;;18.00;93.00;;;;;;5086292;28;20904;-83
2021/05/20 03:39:45;;;;;;;3.67;1.30;;;18.10;93.10;;;;;;5100632;28;20532;-84
2021/05/20 03:42:12;;;;;;;6.65;1.42;;;18.30;92.70;;;;;;5080062;28;20507;-83
2021/05/20 03:44:39;;;;;;;3.70;1.50;;;18.50;92.60;;;;;;5100844;27;20381;-84
2021/05/20 03:47:06;;;;;;;2.30;1.30;;;18.50;92.00;;;;;;5078672;28;20406;-83
2021/05/20 03:49:33;;;;;;;4.00;1.73;;;18.50;91.00;;;;;;5098053;27;20388;-82
2021/05/20 03:52:00;;;;;;;6.90;1.40;;;18.50;91.60;;;;;;5101953;27;20489;-83
2021/05/20 03:54:27;;;;;;;7.50;1.25;;;18.50;92.70;;;;;;5093725;27;20939;-83
2021/05/20 03:56:54;;;;;;;4.65;1.30;;;18.50;91.90;;;;;;5093213;27;20745;-83
2021/05/20 03:59:21;;;;;;;6.00;1.58;;;18.60;91.20;;;;;;5097346;27;20428;-82
2021/05/20 04:01:48;;;;;;;5.90;1.48;;;18.50;91.20;;;;;;5096956;28;20427;-83
2021/05/20 04:04:15;;;;;;;7.10;1.40;;;18.50;90.80;;;;;;5104986;27;20400;-82
2021/05/20 04:06:42;;;;;;;4.47;1.23;;;18.50;90.00;;;;;;5083356;28;20783;-82
2021/05/20 04:09:09;;;;;;;6.63;1.60;;;18.50;91.60;;;;;;5090284;28;20481;-84
2021/05/20 04:11:36;;;;;;;5.77;1.40;;;18.40;92.00;;;;;;5097796;27;20388;-82
2021/05/20 04:14:03;;;;;;;4.55;1.30;;;18.30;92.20;;;;;;5086150;28;20513;-84
2021/05/20 04:16:30;;;;;;;5.28;1.30;;;18.30;92.40;;;;;;5106748;28;20414;-83
2021/05/20 04:18:57;;;;;;;6.22;1.70;;;18.30;92.00;;;;;;5092373;28;20422;-83
2021/05/20 04:21:24;;;;;;;5.80;1.48;;;18.40;92.00;;;;;;5103805;28;20402;-83
2021/05/20 04:23:51;;;;;;;5.35;1.40;;;18.40;92.10;;;;;;5089322;28;20411;-83
2021/05/20 04:26:19;;;;;;;6.35;1.60;;;18.50;91.80;;;;;;5091196;28;20446;-83
2021/05/20 04:28:49;;;;;;;5.25;1.20;;;18.40;91.20;;;;;;5093141;28;20384;-82
2021/05/20 04:31:17;;;;;;;3.15;1.40;;;18.40;91.90;;;;;;5103125;28;20409;-81
2021/05/20 04:33:44;;;;;;;6.30;1.30;;;18.40;90.10;;;;;;5098570;28;20878;-81
2021/05/20 04:36:11;;;;;;;4.15;1.20;;;18.40;90.50;;;;;;5106005;28;20414;-80
2021/05/20 04:38:39;;;;;;;5.20;1.30;;;18.40;90.20;;;;;;5099266;28;21146;-80
2021/05/20 04:41:06;;;;;;;5.95;1.13;;;18.40;90.90;;;;;;5093305;28;22059;-81
2021/05/20 04:43:33;;;;;;;6.15;1.40;;;18.40;91.10;;;;;;5100419;28;20396;-81
2021/05/20 04:46:01;;;;;;;4.32;1.50;;;18.40;90.60;;;;;;5098298;28;20382;-81
2021/05/20 04:48:28;;;;;;;2.42;1.15;;;18.40;89.60;;;;;;5103098;28;20452;-81
2021/05/20 04:50:56;;;;;;;5.03;1.25;;;18.40;90.40;;;;;;5105156;28;20473;-81
2021/05/20 04:53:24;;;;;;;2.90;1.25;;;18.40;90.40;;;;;;5096203;28;20388;-81
2021/05/20 04:55:51;;;;;;;3.90;1.48;;;18.40;90.10;;;;;;5098859;28;20391;-81
2021/05/20 04:58:19;;;;;;;5.75;1.40;;;18.30;90.30;;;;;;5092615;28;20391;-81
2021/05/20 05:00:47;;;;;;;5.50;1.35;;;18.30;90.30;;;;;;5098038;28;20400;-81
2021/05/20 05:03:15;;;;;;;2.65;1.23;;;18.30;88.70;;;;;;5098222;28;20474;-81
2021/05/20 05:05:42;;;;;;;5.25;1.20;;;18.30;90.40;;;;;;5099215;28;20387;-81
2021/05/20 05:08:09;;;;;;;10.90;1.60;;;18.20;90.30;;;;;;5104443;28;20888;-81
2021/05/20 05:10:37;;;;;;;9.63;1.67;;;18.20;89.70;;;;;;5105287;28;21231;-80
2021/05/20 05:13:04;;;;;;;4.03;1.42;;;18.20;87.30;;;;;;5082797;28;20435;-80
2021/05/20 05:15:31;;;;;;;4.10;1.00;;;18.20;89.10;;;;;;5092990;28;20395;-81
2021/05/20 05:17:58;;;;;;;2.55;1.02;;;18.20;88.70;;;;;;5096472;28;20398;-80
2021/05/20 05:20:25;;;;;;;1.80;0.80;;;18.20;87.10;;;;;;5100736;28;21088;-80
2021/05/20 05:22:52;;;;;;;3.38;1.10;;;18.20;88.40;;;;;;5096726;28;20502;-80
2021/05/20 05:25:19;;;;;;;1.60;0.80;;;18.10;86.20;;;;;;5097365;28;20389;-80
2021/05/20 05:27:46;;;;;;;2.60;1.10;;;18.10;84.70;;;;;;5093746;28;21087;-80
2021/05/20 05:30:14;;;;;;;2.63;0.90;;;18.10;81.40;;;;;;5108163;28;20387;-81
2021/05/20 05:32:41;;;;;;;2.60;0.70;;;18.00;81.10;;;;;;5108095;28;20390;-81
2021/05/20 05:35:08;;;;;;;3.88;0.90;;;18.10;80.70;;;;;;5105525;28;20470;-81
2021/05/20 05:37:35;;;;;;;2.25;0.77;;;18.00;81.40;;;;;;5101252;28;20750;-81
2021/05/20 05:40:02;;;;;;;0.90;0.70;;;17.90;82.00;;;;;;5098491;28;20810;-81
2021/05/20 05:42:29;;;;;;;2.50;0.80;;;17.80;84.10;;;;;;5096761;28;20379;-81
2021/05/20 05:44:56;;;;;;;4.00;0.82;;;17.60;87.00;;;;;;5099423;28;20801;-81
2021/05/20 05:47:23;;;;;;;5.00;1.30;;;17.50;88.20;;;;;;5102903;28;20385;-81
2021/05/20 05:49:51;;;;;;;3.50;1.20;;;17.40;88.50;;;;;;5100235;28;20426;-81
2021/05/20 05:52:21;;;;;;;3.50;0.98;;;17.30;90.20;;;;;;5101830;28;20920;-81
2021/05/20 05:54:49;;;;;;;3.00;1.00;;;17.20;90.20;;;;;;5097041;27;20455;-81
2021/05/20 05:57:16;;;;;;;3.60;1.13;;;17.10;90.80;;;;;;5100099;27;20447;-81
2021/05/20 05:59:43;;;;;;;3.75;1.27;;;17.00;90.50;;;;;;5106762;28;20409;-82
2021/05/20 06:02:12;;;;;;;2.88;1.30;;;16.90;90.20;;;;;;5107558;28;20901;-80
2021/05/20 06:04:39;;;;;;;3.17;1.10;;;16.90;91.00;;;;;;5104230;27;20387;-81
2021/05/20 06:07:05;;;;;;;1.58;0.93;;;16.70;91.10;;;;;;5099046;27;20391;-81
2021/05/20 06:09:33;;;;;;;3.00;1.00;;;16.70;90.80;;;;;;5098858;27;20387;-80
2021/05/20 06:12:00;;;;;;;1.90;0.98;;;16.60;91.30;;;;;;5098391;27;20413;-80
2021/05/20 06:14:27;;;;;;;2.90;1.17;;;16.50;91.20;;;;;;5098969;27;20412;-81
2021/05/20 06:16:54;;;;;;;3.47;0.95;;;16.50;91.70;;;;;;5099400;27;20397;-81
2021/05/20 06:19:21;;;;;;;3.08;1.10;;;16.40;91.60;;;;;;5078215;28;20428;-81
2021/05/20 06:21:47;;;;;;;1.15;0.88;;;16.30;91.40;;;;;;5092425;28;20396;-81
2021/05/20 06:24:14;;;;;;;2.38;0.95;;;16.30;91.50;;;;;;5097682;27;20406;-80
2021/05/20 06:26:41;;;;;;;2.88;1.10;;;16.10;91.50;;;;;;5110856;27;20452;-82
2021/05/20 06:29:08;;;;;;;2.38;1.00;;;16.10;91.80;;;;;;5101315;27;20448;-81
2021/05/20 06:31:35;;;;;;;2.67;1.30;;;16.10;92.20;;;;;;5101647;27;20383;-81
2021/05/20 06:34:02;;;;;;;2.53;1.10;;;15.90;93.30;;;;;;5100843;27;20392;-80
2021/05/20 06:36:29;;;;;;;2.30;0.90;;;15.80;93.20;;;;;;5101897;27;21784;-80
2021/05/20 06:38:56;;;;;;;3.28;1.20;;;15.70;93.20;;;;;;5091471;27;20392;-81
2021/05/20 06:41:24;;;;;;;2.50;1.02;;;15.60;93.70;;;;;;5091710;27;20420;-81
2021/05/20 06:43:51;;;;;;;2.00;1.30;;;15.40;94.10;;;;;;5101546;27;20470;-80
2021/05/20 06:46:18;;;;;;;2.63;1.20;;;15.30;95.20;;;;;;5109775;28;20755;-80
2021/05/20 06:48:46;;;;;;;3.58;1.35;;;15.20;95.10;;;;;;5102563;27;20448;-81
2021/05/20 06:51:13;;;;;;;1.45;0.88;;;15.10;95.60;;;;;;5097895;28;20836;-80
2021/05/20 06:53:40;;;;;;;4.03;1.00;;;15.00;95.50;;;;;;5098954;27;20792;-80
2021/05/20 06:56:15;;;;;;;1.75;1.10;;;14.90;95.80;;;;;;5099051;28;20454;-80
2021/05/20 07:01:27;;;;;;;3.35;1.38;;;14.70;96.90;;;;;;5090943;28;20391;-81
2021/05/20 07:03:54;;;;;;;2.55;1.10;;;14.60;97.40;;;;;;5097360;27;20379;-80
2021/05/20 07:06:21;;;;;;;2.30;1.10;;;14.50;97.30;;;;;;5110352;28;20382;-81
2021/05/20 07:08:48;;;;;;;3.60;1.38;;;14.30;97.80;;;;;;5105807;27;20793;-80
2021/05/20 07:11:15;;;;;;;4.50;1.20;;;14.30;98.10;;;;;;5106112;27;20456;-79
2021/05/20 07:13:43;;;;;;;2.95;1.25;;;14.30;98.30;;;;;;5101897;27;20930;-79
2021/05/20 07:16:10;;;;;;;2.28;0.90;;;14.20;98.00;;;;;;5107437;28;20753;-80
2021/05/20 07:18:37;;;;;;;1.67;1.10;;;14.20;98.60;;;;;;5106642;27;20406;-81
2021/05/20 07:21:04;;;;;;;3.50;1.10;;;14.00;98.40;;;;;;5114103;27;20398;-82
2021/05/20 07:23:31;;;;;;;3.63;1.37;;;14.00;99.50;;;;;;5094933;27;20391;-81
2021/05/20 07:25:58;;;;;;;2.67;1.10;;;13.90;99.90;;;;;;5097989;27;20392;-81
2021/05/20 07:28:25;;;;;;;3.92;1.20;;;13.80;99.80;;;;;;5098817;27;20376;-81
2021/05/20 07:30:52;;;;;;;3.65;1.10;;;13.80;99.90;;;;;;5100311;28;20395;-81
2021/05/20 07:33:21;;;;;;;5.60;1.30;;;13.80;99.90;;;;;;5100949;28;20420;-81
2021/05/20 07:35:48;;;;;;;5.15;1.30;;;13.70;99.90;;;;;;5103291;27;20749;-80
2021/05/20 07:38:15;;;;;;;3.88;1.38;;;13.70;99.90;;;;;;5108863;28;20385;-81
2021/05/20 07:40:42;;;;;;;1.23;1.00;;;13.60;99.90;;;;;;5096696;27;20402;-81
2021/05/20 07:43:09;;;;;;;2.75;0.98;;;13.50;99.90;;;;;;5101038;27;20425;-80
2021/05/20 07:45:36;;;;;;;3.75;1.27;;;13.50;99.90;;;;;;5095798;27;20771;-80
2021/05/20 07:48:03;;;;;;;2.50;1.20;;;13.40;99.90;;;;;;5096735;27;20445;-82
2021/05/20 07:50:30;;;;;;;3.75;1.25;;;13.40;99.90;;;;;;5108724;27;20416;-80
2021/05/20 07:52:57;;;;;;;3.53;1.00;;;13.40;99.90;;;;;;5090393;27;20400;-80
2021/05/20 07:55:24;;;;;;;4.78;1.20;;;13.40;99.90;;;;;;5097733;28;20481;-81
2021/05/20 07:57:53;;;;;;;1.77;0.95;;;13.30;99.90;;;;;;5101639;27;20446;-81
2021/05/20 08:00:21;;;;;;;1.20;1.10;;;13.30;99.90;;;;;;5102203;28;20408;-80
2021/05/20 08:03:27;;;;;;;2.10;1.10;;;13.30;99.90;;;;;;5098820;27;20384;-81
2021/05/20 08:05:52;;;;;;;4.73;1.10;;;13.20;99.90;;;;;;5103331;28;20406;-81
2021/05/20 08:11:02;;;;;;;1.85;1.10;;;13.00;99.90;;;;;;5100171;27;20491;-80
2021/05/20 08:13:30;;;;;;;2.50;1.15;;;12.90;99.90;;;;;;5095970;28;20383;-80
2021/05/20 08:15:57;;;;;;;3.20;1.35;;;12.90;99.90;;;;;;5094102;27;20399;-80
2021/05/20 08:18:25;;;;;;;9.75;1.40;;;12.90;99.90;;;;;;5106549;28;20394;-80
2021/05/20 08:20:52;;;;;;;4.03;1.40;;;12.90;99.90;;;;;;5095745;27;20401;-80
2021/05/20 08:23:19;;;;;;;3.43;1.33;;;12.90;99.90;;;;;;5097409;28;20386;-81
2021/05/20 08:25:46;;;;;;;2.40;1.08;;;12.80;99.90;;;;;;5107680;28;20379;-80
2021/05/20 08:28:14;;;;;;;2.65;1.42;;;12.90;99.90;;;;;;5099267;27;20415;-80
2021/05/20 08:30:41;;;;;;;2.42;1.33;;;12.90;99.90;;;;;;5092822;28;20470;-80
2021/05/20 08:33:08;;;;;;;2.42;1.42;;;13.00;99.90;;;;;;5109162;28;20392;-80
2021/05/20 08:35:36;;;;;;;3.42;1.42;;;13.00;99.90;;;;;;5094444;28;20395;-81
2021/05/20 08:38:03;;;;;;;4.43;1.30;;;12.90;99.90;;;;;;5104113;28;20394;-80
2021/05/20 08:40:31;;;;;;;2.40;0.93;;;12.90;99.90;;;;;;5106857;28;20407;-80
2021/05/20 08:42:59;;;;;;;2.13;1.60;;;12.90;99.90;;;;;;5098230;28;20463;-79
2021/05/20 08:45:31;;;;;;;3.38;1.40;;;12.80;99.90;;;;;;5078028;28;20485;-80
2021/05/20 08:47:59;;;;;;;2.85;1.30;;;12.80;99.90;;;;;;5089749;28;20394;-80
2021/05/20 08:50:30;;;;;;;3.13;1.30;;;12.80;99.90;;;;;;5094434;28;20384;-81
2021/05/20 08:52:57;;;;;;;3.97;1.42;;;12.90;99.90;;;;;;5094525;28;20481;-82
2021/05/20 08:55:33;;;;;;;4.35;1.40;;;12.80;99.90;;;;;;5096349;28;20397;-82
2021/05/20 08:58:01;;;;;;;7.27;1.57;;;12.90;99.90;;;;;;5097197;28;20397;-82
2021/05/20 09:00:30;;;;;;;5.03;1.40;;;12.90;99.90;;;;;;5103212;28;20408;-81
2021/05/20 09:03:14;;;;;;;2.92;1.55;;;12.90;99.90;;;;;;5093677;28;20390;-85
2021/05/20 09:05:42;;;;;;;3.92;1.30;;;12.90;99.90;;;;;;5103768;28;20937;-87
2021/05/20 09:08:13;;;;;;;3.15;1.27;;;12.80;99.90;;;;;;5100069;28;20470;-87
2021/05/20 09:10:42;;;;;;;5.07;1.40;;;12.80;99.90;;;;;;5111153;28;20378;-88
2021/05/20 09:13:20;;;;;;;3.50;1.40;;;12.80;99.90;;;;;;5086571;28;20941;-87
2021/05/20 09:15:52;;;;;;;2.97;1.40;;;12.80;99.90;;;;;;5079546;28;20558;-88
2021/05/20 09:18:24;;;;;;;4.83;1.30;;;12.70;99.90;;;;;;5063420;28;20494;-89
2021/05/20 09:20:54;;;;;;;4.20;1.43;;;12.70;99.90;;;;;;5069264;28;20424;-91
2021/05/20 09:23:26;;;;;;;2.67;1.50;;;12.70;99.90;;;;;;5075951;28;20858;-88
2021/05/20 09:26:03;;;;;;;4.00;1.33;;;12.60;99.90;;;;;;5104467;28;20405;-88
2021/05/20 09:28:48;;;;;;;3.90;1.60;;;12.60;99.90;;;;;;5078192;28;20456;-87
2021/05/20 09:31:36;;;;;;;2.72;1.60;;;12.50;99.90;;;;;;5076417;28;20397;-86
2021/05/20 09:34:12;;;;;;;4.40;1.60;;;12.50;99.90;;;;;;5088730;28;20393;-86
2021/05/20 09:36:50;;;;;;;9.02;1.50;;;12.40;99.90;;;;;;5094149;28;20448;-87
2021/05/20 09:39:18;;;;;;;4.55;1.60;;;12.40;99.90;;;;;;5086127;28;20416;-89
2021/05/20 09:41:46;;;;;;;4.32;1.55;;;12.30;99.90;;;;;;5092765;28;20394;-86
2021/05/20 09:44:32;;;;;;;3.40;1.33;;;12.40;99.90;;;;;;5085741;28;20398;-91
2021/05/20 09:47:03;;;;;;;4.22;1.60;;;12.30;99.90;;;;;;5090554;28;20482;-90
2021/05/20 09:49:30;;;;;;;3.85;1.67;;;12.30;99.90;;;;;;5093805;28;20402;-89
2021/05/20 09:52:20;;;;;;;6.05;1.73;;;12.30;99.90;;;;;;5119621;28;20411;-87
2021/05/20 09:54:48;;;;;;;4.90;1.80;;;12.30;99.90;;;;;;5094025;28;20374;-87
2021/05/20 09:57:33;;;;;;;2.75;1.52;;;12.30;99.90;;;;;;5080385;28;20911;-91
2021/05/20 10:00:08;;;;;;;3.22;1.33;;;12.30;99.90;;;;;;5079939;28;20405;-90
2021/05/20 10:02:36;;;;;;;4.00;1.60;;;12.30;99.90;;;;;;5074912;28;20378;-91
2021/05/20 10:05:25;;;;;;;4.05;1.60;;;12.30;99.90;;;;;;5081167;28;20402;-91
2021/05/20 10:07:53;;;;;;;4.00;1.48;;;12.20;99.90;;;;;;5080120;28;20372;-90
2021/05/20 10:10:20;;;;;;;5.95;2.80;;;12.20;99.90;;;;;;5078362;28;20509;-90
2021/05/20 10:12:48;;;;;;;5.37;2.70;;;12.30;99.90;;;;;;5078336;28;20438;-90
2021/05/20 10:15:20;;;;;;;5.07;2.42;;;12.20;99.90;;;;;;5077262;28;20393;-90
2021/05/20 10:17:49;;;;;;;3.92;2.20;;;12.20;99.90;;;;;;5076248;28;20474;-91
2021/05/20 10:20:19;;;;;;;5.23;2.30;;;12.20;99.90;;;;;;5073390;28;20489;-90
2021/05/20 10:22:47;;;;;;;2.97;1.77;;;12.20;99.90;;;;;;5078856;28;20459;-91
2021/05/20 10:25:15;;;;;;;6.43;1.70;;;12.20;99.90;;;;;;5076967;28;20418;-90
2021/05/20 10:27:42;;;;;;;3.33;1.50;;;12.10;99.90;;;;;;5076255;28;20382;-91
2021/05/20 10:30:12;;;;;;;3.07;1.77;;;12.10;99.90;;;;;;5073712;28;20390;-91
2021/05/20 10:32:41;;;;;;;3.55;1.77;;;12.10;99.90;;;;;;5074773;28;20409;-91
2021/05/20 10:35:13;;;;;;;3.15;1.77;;;12.10;99.90;;;;;;5075954;28;20373;-91
2021/05/20 10:37:42;;;;;;;5.43;1.75;;;12.10;99.90;;;;;;5075137;28;20394;-91
2021/05/20 10:40:25;;;;;;;3.30;1.33;;;12.20;99.90;;;;;;5072708;28;20505;-88
2021/05/20 10:43:20;;;;;;;3.70;1.98;;;12.10;99.90;;;;;;5060132;28;20449;-91
2021/05/20 10:46:05;;;;;;;4.15;1.58;;;12.10;99.90;;;;;;5070018;28;20390;-90
2021/05/20 10:48:34;;;;;;;3.42;1.80;;;12.10;99.90;;;;;;5065814;28;20818;-90
2021/05/20 10:51:05;;;;;;;5.20;1.25;;;12.20;99.90;;;;;;5072180;28;20499;-92
2021/05/20 10:53:41;;;;;;;2.85;1.63;;;12.10;99.90;;;;;;5079238;28;20363;-91
2021/05/20 10:56:34;;;;;;;5.53;2.10;;;12.10;99.90;;;;;;5081306;28;20390;-91
2021/05/20 10:59:02;;;;;;;3.70;1.60;;;12.10;99.90;;;;;;5078756;28;20390;-92
2021/05/20 11:01:34;;;;;;;4.20;2.33;;;12.10;99.90;;;;;;5084003;28;20392;-92
2021/05/20 11:04:05;;;;;;;7.55;3.97;;;12.00;99.90;;;;;;5077608;28;20433;-91
2021/05/20 11:06:38;;;;;;;5.35;2.75;;;11.90;99.90;;;;;;5076164;28;20442;-88
2021/05/20 11:09:06;;;;;;;3.47;2.47;;;11.90;99.90;;;;;;5071976;28;20381;-87
2021/05/20 11:11:34;;;;;;;5.82;2.22;;;11.90;99.90;;;;;;5062040;28;20407;-87
2021/05/20 11:14:13;;;;;;;4.68;2.58;;;11.90;99.90;;;;;;5072497;28;20390;-88
2021/05/20 11:16:44;;;;;;;7.63;2.93;;;11.90;99.90;;;;;;5070583;28;20425;-89
2021/05/20 11:19:25;;;;;;;4.68;2.60;;;12.00;99.90;;;;;;5072121;28;20979;-88
2021/05/20 11:22:04;;;;;;;6.60;3.83;;;12.00;99.90;;;;;;5067730;28;20481;-88
2021/05/20 11:24:33;;;;;;;7.90;3.45;;;11.90;99.90;;;;;;5071916;28;20425;-89
2021/05/20 11:27:14;;;;;;;5.30;2.80;;;11.80;99.90;;;;;;5073089;28;20386;-92
2021/05/20 11:29:42;;;;;;;6.30;3.00;;;11.70;99.90;;;;;;5076411;28;20424;-92
2021/05/20 11:37:27;;;;;;;5.50;2.95;;;11.40;99.90;;;;;;5077238;28;20398;-93
2021/05/20 11:39:54;;;;;;;5.95;3.35;;;11.40;99.90;;;;;;5077077;28;20479;-92
2021/05/20 11:42:31;;;;;;;7.07;3.20;;;11.30;99.90;;;;;;5077539;28;20757;-92
2021/05/20 11:45:01;;;;;;;8.85;4.05;;;11.20;99.90;;;;;;5078635;28;20391;-92
2021/05/20 11:47:28;;;;;;;6.55;3.85;;;11.10;99.90;;;;;;5074577;28;20413;-91
2021/05/20 11:49:55;;;;;;;8.18;3.88;;;11.10;99.90;;;;;;5069212;28;20527;-92
2021/05/20 11:52:25;;;;;;;6.55;4.22;;;11.00;99.90;;;;;;5076456;28;20366;-90
2021/05/20 11:54:55;;;;;;;9.45;4.38;;;11.00;99.90;;;;;;5076627;28;21187;-92
2021/05/20 11:57:24;;;;;;;7.75;3.40;;;11.00;99.90;;;;;;5074469;28;20390;-91
2021/05/20 11:59:52;;;;;;;6.73;3.50;;;11.00;99.90;;;;;;5070067;28;20450;-92
2021/05/20 12:02:28;;;;;;;6.80;3.30;;;11.00;99.90;;;;;;5077093;28;20415;-91
2021/05/20 12:05:04;;;;;;;6.88;3.58;;;11.00;99.90;;;;;;5077594;28;20385;-92
2021/05/20 12:07:32;;;;;;;4.45;3.00;;;11.00;99.90;;;;;;5076141;28;20394;-92
2021/05/20 12:10:17;;;;;;;5.65;3.20;;;11.10;99.90;;;;;;5076076;28;20394;-91
2021/05/20 12:12:56;;;;;;;7.13;2.80;;;11.10;99.90;;;;;;5069753;28;20603;-87
2021/05/20 12:15:26;;;;;;;6.70;3.00;;;11.10;99.90;;;;;;5076510;28;20433;-92
2021/05/20 12:17:57;;;;;;;5.80;2.90;;;11.00;99.90;;;;;;5111166;28;20402;-91
2021/05/20 12:20:28;;;;;;;6.68;3.05;;;11.00;99.90;;;;;;5115493;28;20475;-92
2021/05/20 12:22:56;;;;;;;5.95;3.10;;;11.00;99.90;;;;;;5111370;28;20412;-92
2021/05/20 12:25:26;;;;;;;7.13;3.30;;;10.90;99.90;;;;;;5099766;28;20390;-88
2021/05/20 12:27:55;;;;;;;6.95;3.28;;;10.90;99.90;;;;;;5098930;28;20901;-91
2021/05/20 12:30:37;;;;;;;5.40;3.03;;;10.90;99.90;;;;;;5116435;28;20484;-92
2021/05/20 12:33:05;;;;;;;7.18;3.47;;;10.70;99.90;;;;;;5116929;28;20398;-92
2021/05/20 12:35:43;;;;;;;6.72;3.20;;;10.60;99.90;;;;;;5093012;28;20388;-92
2021/05/20 12:38:20;;;;;;;8.38;3.20;;;10.50;99.90;;;;;;5116826;28;20442;-93
2021/05/20 12:40:56;;;;;;;7.35;3.70;;;10.50;99.90;;;;;;5117339;28;20455;-93
2021/05/20 12:43:35;;;;;;;6.15;3.95;;;10.40;99.90;;;;;;5117265;28;20449;-93
2021/05/20 12:46:14;;;;;;;5.13;3.28;;;10.40;99.90;;;;;;5112487;28;20755;-93
2021/05/20 12:48:43;;;;;;;7.70;3.78;;;10.40;99.90;;;;;;5112895;28;20376;-93
2021/05/20 12:51:19;;;;;;;7.28;4.32;;;10.30;99.90;;;;;;5110367;28;20446;-93
2021/05/20 12:53:54;;;;;;;8.00;4.65;;;10.30;99.90;;;;;;5106817;28;20395;-92
2021/05/20 12:56:32;;;;;;;10.20;4.70;;;10.20;99.90;;;;;;5116056;28;20406;-92
2021/05/20 12:59:04;;;;;;;9.40;5.10;;;10.10;99.90;;;;;;5114928;28;20436;-92
2021/05/20 13:01:49;;;;;;;9.67;5.53;;;10.00;99.90;;;;;;5114648;28;20395;-92
2021/05/20 13:04:27;;;;;;;8.55;5.63;;;9.90;99.90;;;;;;5112733;28;20389;-91
2021/05/20 13:06:59;;;;;;;8.38;5.75;;;9.80;99.90;;;;;;5120273;28;20461;-92
2021/05/20 13:09:44;;;;;;;10.15;6.13;;;9.80;99.90;;;;;;5121663;28;20365;-91